sensor_id;sensor_type;location;lat;lon;timestamp;P1;durP1;ratioP1;P2;durP2;ratioP2
48040;SDS011;33815;48.386;11.738;2023-02-01T00:01:10;6.00;;;3.92;;
48040;SDS011;33815;48.386;11.738;2023-02-01T00:03:35;6.10;;;3.97;;
48040;SDS011;33815;48.386;11.738;2023-02-01T00:06:01;4.72;;;4.15;;
48040;SDS011;33815;48.386;11.738;2023-02-01T00:08:27;8.20;;;4.07;;
48040;SDS011;33815;48.386;11.738;2023-02-01T00:10:59;7.70;;;4.47;;
48040;SDS011;33815;48.386;11.738;2023-02-01T00:13:30;7.63;;;4.40;;
48040;SDS011;33815;48.386;11.738;2023-02-01T00:16:06;7.88;;;4.40;;
48040;SDS011;33815;48.386;11.738;2023-02-01T00:18:31;5.82;;;4.20;;
48040;SDS011;33815;48.386;11.738;2023-02-01T00:20:57;6.18;;;3.97;;
48040;SDS011;33815;48.386;11.738;2023-02-01T00:23:22;5.07;;;3.67;;
48040;SDS011;33815;48.386;11.738;2023-02-01T00:25:47;7.00;;;4.25;;
48040;SDS011;33815;48.386;11.738;2023-02-01T00:28:12;7.00;;;4.85;;
48040;SDS011;33815;48.386;11.738;2023-02-01T00:30:38;6.60;;;4.07;;
48040;SDS011;33815;48.386;11.738;2023-02-01T00:33:03;5.35;;;3.85;;
48040;SDS011;33815;48.386;11.738;2023-02-01T00:35:29;6.85;;;4.05;;
48040;SDS011;33815;48.386;11.738;2023-02-01T00:37:54;8.32;;;4.70;;
48040;SDS011;33815;48.386;11.738;2023-02-01T00:40:20;8.73;;;4.35;;
48040;SDS011;33815;48.386;11.738;2023-02-01T00:42:45;4.30;;;3.47;;
48040;SDS011;33815;48.386;11.738;2023-02-01T00:45:11;6.10;;;4.13;;
48040;SDS011;33815;48.386;11.738;2023-02-01T00:47:36;8.57;;;4.75;;
48040;SDS011;33815;48.386;11.738;2023-02-01T00:50:01;4.88;;;3.60;;
48040;SDS011;33815;48.386;11.738;2023-02-01T00:52:26;5.68;;;4.30;;
48040;SDS011;33815;48.386;11.738;2023-02-01T00:54:52;4.75;;;3.80;;
48040;SDS011;33815;48.386;11.738;2023-02-01T00:57:17;6.15;;;3.97;;
48040;SDS011;33815;48.386;11.738;2023-02-01T00:59:42;6.10;;;4.15;;
48040;SDS011;33815;48.386;11.738;2023-02-01T01:02:08;5.45;;;4.32;;
48040;SDS011;33815;48.386;11.738;2023-02-01T01:04:34;4.82;;;4.00;;
48040;SDS011;33815;48.386;11.738;2023-02-01T01:06:59;4.50;;;4.10;;
48040;SDS011;33815;48.386;11.738;2023-02-01T01:09:25;7.38;;;4.38;;
48040;SDS011;33815;48.386;11.738;2023-02-01T01:11:50;6.93;;;4.45;;
48040;SDS011;33815;48.386;11.738;2023-02-01T01:14:17;10.95;;;4.82;;
48040;SDS011;33815;48.386;11.738;2023-02-01T01:16:42;8.90;;;4.65;;
48040;SDS011;33815;48.386;11.738;2023-02-01T01:19:08;6.80;;;4.20;;
48040;SDS011;33815;48.386;11.738;2023-02-01T01:21:33;6.20;;;4.10;;
48040;SDS011;33815;48.386;11.738;2023-02-01T01:23:58;7.88;;;4.13;;
48040;SDS011;33815;48.386;11.738;2023-02-01T01:26:25;6.65;;;4.30;;
48040;SDS011;33815;48.386;11.738;2023-02-01T01:28:51;9.57;;;4.55;;
48040;SDS011;33815;48.386;11.738;2023-02-01T01:31:19;8.73;;;4.15;;
48040;SDS011;33815;48.386;11.738;2023-02-01T01:33:47;6.88;;;4.93;;
48040;SDS011;33815;48.386;11.738;2023-02-01T01:36:13;7.15;;;4.80;;
48040;SDS011;33815;48.386;11.738;2023-02-01T01:38:39;9.48;;;4.90;;
48040;SDS011;33815;48.386;11.738;2023-02-01T01:41:05;6.45;;;4.55;;
48040;SDS011;33815;48.386;11.738;2023-02-01T01:43:45;5.68;;;4.55;;
48040;SDS011;33815;48.386;11.738;2023-02-01T01:46:17;6.47;;;4.60;;
48040;SDS011;33815;48.386;11.738;2023-02-01T01:48:55;7.22;;;4.40;;
48040;SDS011;33815;48.386;11.738;2023-02-01T01:51:25;8.13;;;5.15;;
48040;SDS011;33815;48.386;11.738;2023-02-01T01:53:56;9.80;;;5.65;;
48040;SDS011;33815;48.386;11.738;2023-02-01T01:56:26;11.15;;;5.28;;
48040;SDS011;33815;48.386;11.738;2023-02-01T01:58:53;7.47;;;4.85;;
48040;SDS011;33815;48.386;11.738;2023-02-01T02:01:19;8.10;;;5.70;;
48040;SDS011;33815;48.386;11.738;2023-02-01T02:03:44;8.80;;;5.60;;
48040;SDS011;33815;48.386;11.738;2023-02-01T02:06:15;7.72;;;5.50;;
48040;SDS011;33815;48.386;11.738;2023-02-01T02:08:41;6.78;;;5.15;;
48040;SDS011;33815;48.386;11.738;2023-02-01T02:11:07;9.18;;;5.28;;
48040;SDS011;33815;48.386;11.738;2023-02-01T02:13:33;6.57;;;4.68;;
48040;SDS011;33815;48.386;11.738;2023-02-01T02:18:57;9.93;;;5.80;;
48040;SDS011;33815;48.386;11.738;2023-02-01T02:21:31;9.43;;;5.50;;
48040;SDS011;33815;48.386;11.738;2023-02-01T02:24:19;8.68;;;5.47;;
48040;SDS011;33815;48.386;11.738;2023-02-01T02:41:39;8.10;;;5.63;;
48040;SDS011;33815;48.386;11.738;2023-02-01T02:44:33;9.07;;;5.43;;
48040;SDS011;33815;48.386;11.738;2023-02-01T02:47:38;8.55;;;5.47;;
48040;SDS011;33815;48.386;11.738;2023-02-01T02:50:11;9.32;;;5.30;;
48040;SDS011;33815;48.386;11.738;2023-02-01T02:53:04;7.40;;;5.68;;
48040;SDS011;33815;48.386;11.738;2023-02-01T02:55:55;7.40;;;5.63;;
48040;SDS011;33815;48.386;11.738;2023-02-01T02:58:41;7.32;;;5.20;;
48040;SDS011;33815;48.386;11.738;2023-02-01T03:01:27;10.13;;;5.25;;
48040;SDS011;33815;48.386;11.738;2023-02-01T03:04:12;10.27;;;5.50;;
48040;SDS011;33815;48.386;11.738;2023-02-01T03:06:42;6.38;;;4.95;;
48040;SDS011;33815;48.386;11.738;2023-02-01T03:09:18;9.43;;;5.60;;
48040;SDS011;33815;48.386;11.738;2023-02-01T03:11:51;10.20;;;5.45;;
48040;SDS011;33815;48.386;11.738;2023-02-01T03:14:40;6.90;;;5.13;;
48040;SDS011;33815;48.386;11.738;2023-02-01T03:17:11;14.70;;;6.07;;
48040;SDS011;33815;48.386;11.738;2023-02-01T03:19:41;9.25;;;5.65;;
48040;SDS011;33815;48.386;11.738;2023-02-01T03:22:15;12.52;;;6.07;;
48040;SDS011;33815;48.386;11.738;2023-02-01T03:24:45;9.30;;;5.30;;
48040;SDS011;33815;48.386;11.738;2023-02-01T03:27:35;7.88;;;5.35;;
48040;SDS011;33815;48.386;11.738;2023-02-01T03:30:15;8.95;;;5.78;;
48040;SDS011;33815;48.386;11.738;2023-02-01T03:32:46;6.47;;;5.03;;
48040;SDS011;33815;48.386;11.738;2023-02-01T03:35:26;9.35;;;5.68;;
48040;SDS011;33815;48.386;11.738;2023-02-01T03:37:56;7.82;;;5.25;;
48040;SDS011;33815;48.386;11.738;2023-02-01T03:40:28;6.90;;;5.63;;
48040;SDS011;33815;48.386;11.738;2023-02-01T03:42:57;5.75;;;5.15;;
48040;SDS011;33815;48.386;11.738;2023-02-01T03:45:27;8.15;;;5.25;;
48040;SDS011;33815;48.386;11.738;2023-02-01T03:47:58;9.68;;;5.32;;
48040;SDS011;33815;48.386;11.738;2023-02-01T03:50:26;8.95;;;5.35;;
48040;SDS011;33815;48.386;11.738;2023-02-01T03:53:01;6.50;;;4.68;;
48040;SDS011;33815;48.386;11.738;2023-02-01T03:55:30;8.30;;;5.00;;
48040;SDS011;33815;48.386;11.738;2023-02-01T04:00:32;9.00;;;4.80;;
48040;SDS011;33815;48.386;11.738;2023-02-01T04:02:58;9.18;;;5.13;;
48040;SDS011;33815;48.386;11.738;2023-02-01T04:05:23;8.82;;;5.50;;
48040;SDS011;33815;48.386;11.738;2023-02-01T04:07:49;8.25;;;5.45;;
48040;SDS011;33815;48.386;11.738;2023-02-01T04:10:14;6.50;;;4.68;;
48040;SDS011;33815;48.386;11.738;2023-02-01T04:12:40;6.82;;;5.53;;
48040;SDS011;33815;48.386;11.738;2023-02-01T04:15:05;7.93;;;5.22;;
48040;SDS011;33815;48.386;11.738;2023-02-01T04:17:31;7.72;;;5.03;;
48040;SDS011;33815;48.386;11.738;2023-02-01T04:19:56;6.15;;;4.70;;
48040;SDS011;33815;48.386;11.738;2023-02-01T04:22:22;6.60;;;4.55;;
48040;SDS011;33815;48.386;11.738;2023-02-01T04:24:47;7.35;;;4.45;;
48040;SDS011;33815;48.386;11.738;2023-02-01T04:27:12;6.18;;;4.47;;
48040;SDS011;33815;48.386;11.738;2023-02-01T04:29:38;5.25;;;4.35;;
48040;SDS011;33815;48.386;11.738;2023-02-01T04:32:04;6.32;;;4.03;;
48040;SDS011;33815;48.386;11.738;2023-02-01T04:34:29;6.68;;;4.50;;
48040;SDS011;33815;48.386;11.738;2023-02-01T04:36:55;5.28;;;4.20;;
48040;SDS011;33815;48.386;11.738;2023-02-01T04:39:20;7.13;;;4.32;;
48040;SDS011;33815;48.386;11.738;2023-02-01T04:41:45;5.60;;;4.13;;
48040;SDS011;33815;48.386;11.738;2023-02-01T04:44:14;6.22;;;4.13;;
48040;SDS011;33815;48.386;11.738;2023-02-01T04:46:43;6.72;;;3.80;;
48040;SDS011;33815;48.386;11.738;2023-02-01T04:49:09;9.20;;;4.30;;
48040;SDS011;33815;48.386;11.738;2023-02-01T04:51:35;8.18;;;4.53;;
48040;SDS011;33815;48.386;11.738;2023-02-01T04:54:01;9.65;;;4.55;;
48040;SDS011;33815;48.386;11.738;2023-02-01T04:56:26;6.10;;;4.45;;
48040;SDS011;33815;48.386;11.738;2023-02-01T04:58:51;7.10;;;4.53;;
48040;SDS011;33815;48.386;11.738;2023-02-01T05:01:17;6.53;;;4.10;;
48040;SDS011;33815;48.386;11.738;2023-02-01T05:03:43;6.75;;;4.03;;
48040;SDS011;33815;48.386;11.738;2023-02-01T05:06:08;4.07;;;3.60;;
48040;SDS011;33815;48.386;11.738;2023-02-01T05:08:33;6.53;;;3.90;;
48040;SDS011;33815;48.386;11.738;2023-02-01T05:10:59;9.75;;;3.70;;
48040;SDS011;33815;48.386;11.738;2023-02-01T05:13:27;6.22;;;4.28;;
48040;SDS011;33815;48.386;11.738;2023-02-01T05:16:10;6.43;;;3.97;;
48040;SDS011;33815;48.386;11.738;2023-02-01T05:18:36;6.20;;;3.63;;
48040;SDS011;33815;48.386;11.738;2023-02-01T05:21:01;5.97;;;3.45;;
48040;SDS011;33815;48.386;11.738;2023-02-01T05:23:26;4.68;;;3.85;;
48040;SDS011;33815;48.386;11.738;2023-02-01T05:25:52;4.60;;;3.65;;
48040;SDS011;33815;48.386;11.738;2023-02-01T05:28:17;5.43;;;3.75;;
48040;SDS011;33815;48.386;11.738;2023-02-01T05:30:42;4.53;;;3.47;;
48040;SDS011;33815;48.386;11.738;2023-02-01T05:33:07;5.82;;;3.92;;
48040;SDS011;33815;48.386;11.738;2023-02-01T05:35:33;4.53;;;3.63;;
48040;SDS011;33815;48.386;11.738;2023-02-01T05:37:58;4.63;;;3.80;;
48040;SDS011;33815;48.386;11.738;2023-02-01T05:40:23;5.78;;;3.90;;
48040;SDS011;33815;48.386;11.738;2023-02-01T05:42:48;6.38;;;4.70;;
48040;SDS011;33815;48.386;11.738;2023-02-01T05:45:14;6.07;;;3.97;;
48040;SDS011;33815;48.386;11.738;2023-02-01T05:47:39;4.57;;;3.63;;
48040;SDS011;33815;48.386;11.738;2023-02-01T05:50:04;4.22;;;3.45;;
48040;SDS011;33815;48.386;11.738;2023-02-01T05:52:31;7.88;;;4.07;;
48040;SDS011;33815;48.386;11.738;2023-02-01T05:54:56;7.03;;;3.70;;
48040;SDS011;33815;48.386;11.738;2023-02-01T05:57:21;5.97;;;3.72;;
48040;SDS011;33815;48.386;11.738;2023-02-01T05:59:46;5.95;;;4.00;;
48040;SDS011;33815;48.386;11.738;2023-02-01T06:02:13;5.18;;;4.03;;
48040;SDS011;33815;48.386;11.738;2023-02-01T06:04:39;5.82;;;4.10;;
48040;SDS011;33815;48.386;11.738;2023-02-01T06:07:05;6.38;;;4.03;;
48040;SDS011;33815;48.386;11.738;2023-02-01T06:09:32;5.22;;;4.03;;
48040;SDS011;33815;48.386;11.738;2023-02-01T06:11:58;8.77;;;3.80;;
48040;SDS011;33815;48.386;11.738;2023-02-01T06:14:24;6.75;;;4.22;;
48040;SDS011;33815;48.386;11.738;2023-02-01T06:16:49;6.47;;;4.13;;
48040;SDS011;33815;48.386;11.738;2023-02-01T06:19:15;6.07;;;4.30;;
48040;SDS011;33815;48.386;11.738;2023-02-01T06:21:40;6.65;;;4.35;;
48040;SDS011;33815;48.386;11.738;2023-02-01T06:24:05;6.13;;;3.92;;
48040;SDS011;33815;48.386;11.738;2023-02-01T06:26:31;5.80;;;4.10;;
48040;SDS011;33815;48.386;11.738;2023-02-01T06:28:56;5.40;;;3.75;;
48040;SDS011;33815;48.386;11.738;2023-02-01T06:31:22;5.28;;;3.92;;
48040;SDS011;33815;48.386;11.738;2023-02-01T06:33:48;8.05;;;3.97;;
48040;SDS011;33815;48.386;11.738;2023-02-01T06:36:13;7.65;;;3.75;;
48040;SDS011;33815;48.386;11.738;2023-02-01T06:38:40;5.85;;;3.97;;
48040;SDS011;33815;48.386;11.738;2023-02-01T06:41:06;5.68;;;4.03;;
48040;SDS011;33815;48.386;11.738;2023-02-01T06:43:31;7.07;;;3.90;;
48040;SDS011;33815;48.386;11.738;2023-02-01T06:46:00;5.15;;;3.72;;
48040;SDS011;33815;48.386;11.738;2023-02-01T06:48:28;4.35;;;3.33;;
48040;SDS011;33815;48.386;11.738;2023-02-01T06:50:53;3.42;;;3.00;;
48040;SDS011;33815;48.386;11.738;2023-02-01T06:53:18;4.50;;;3.60;;
48040;SDS011;33815;48.386;11.738;2023-02-01T06:56:02;4.28;;;3.80;;
48040;SDS011;33815;48.386;11.738;2023-02-01T06:58:29;6.43;;;3.47;;
48040;SDS011;33815;48.386;11.738;2023-02-01T07:01:00;4.85;;;3.20;;
48040;SDS011;33815;48.386;11.738;2023-02-01T07:03:29;3.50;;;3.13;;
48040;SDS011;33815;48.386;11.738;2023-02-01T07:05:55;6.57;;;3.42;;
48040;SDS011;33815;48.386;11.738;2023-02-01T07:08:23;5.50;;;3.22;;
48040;SDS011;33815;48.386;11.738;2023-02-01T07:10:48;4.20;;;3.80;;
48040;SDS011;33815;48.386;11.738;2023-02-01T07:13:13;5.53;;;3.90;;
48040;SDS011;33815;48.386;11.738;2023-02-01T07:15:39;7.97;;;3.65;;
48040;SDS011;33815;48.386;11.738;2023-02-01T07:18:04;7.38;;;4.10;;
48040;SDS011;33815;48.386;11.738;2023-02-01T07:20:29;4.25;;;3.63;;
48040;SDS011;33815;48.386;11.738;2023-02-01T07:22:55;5.97;;;4.18;;
48040;SDS011;33815;48.386;11.738;2023-02-01T07:25:22;4.55;;;3.90;;
48040;SDS011;33815;48.386;11.738;2023-02-01T07:27:47;6.03;;;3.63;;
48040;SDS011;33815;48.386;11.738;2023-02-01T07:30:13;6.50;;;3.70;;
48040;SDS011;33815;48.386;11.738;2023-02-01T07:32:38;6.43;;;3.92;;
48040;SDS011;33815;48.386;11.738;2023-02-01T07:35:03;4.53;;;3.72;;
48040;SDS011;33815;48.386;11.738;2023-02-01T07:37:29;5.97;;;3.88;;
48040;SDS011;33815;48.386;11.738;2023-02-01T07:39:55;7.80;;;3.97;;
48040;SDS011;33815;48.386;11.738;2023-02-01T07:42:21;4.93;;;4.22;;
48040;SDS011;33815;48.386;11.738;2023-02-01T07:44:46;5.15;;;3.78;;
48040;SDS011;33815;48.386;11.738;2023-02-01T07:47:11;4.82;;;3.75;;
48040;SDS011;33815;48.386;11.738;2023-02-01T07:49:36;5.03;;;2.95;;
48040;SDS011;33815;48.386;11.738;2023-02-01T07:52:02;5.15;;;3.97;;
48040;SDS011;33815;48.386;11.738;2023-02-01T07:54:27;4.72;;;3.50;;
48040;SDS011;33815;48.386;11.738;2023-02-01T07:56:52;7.15;;;4.20;;
48040;SDS011;33815;48.386;11.738;2023-02-01T07:59:17;4.13;;;3.50;;
48040;SDS011;33815;48.386;11.738;2023-02-01T08:01:43;5.75;;;3.50;;
48040;SDS011;33815;48.386;11.738;2023-02-01T08:04:09;3.55;;;3.25;;
48040;SDS011;33815;48.386;11.738;2023-02-01T08:06:36;7.95;;;3.53;;
48040;SDS011;33815;48.386;11.738;2023-02-01T08:09:02;6.45;;;3.35;;
48040;SDS011;33815;48.386;11.738;2023-02-01T08:11:28;5.63;;;3.60;;
48040;SDS011;33815;48.386;11.738;2023-02-01T08:13:54;4.82;;;3.20;;
48040;SDS011;33815;48.386;11.738;2023-02-01T08:16:20;3.28;;;2.97;;
48040;SDS011;33815;48.386;11.738;2023-02-01T08:18:46;6.30;;;3.53;;
48040;SDS011;33815;48.386;11.738;2023-02-01T08:21:15;5.43;;;3.65;;
48040;SDS011;33815;48.386;11.738;2023-02-01T08:23:43;6.97;;;4.03;;
48040;SDS011;33815;48.386;11.738;2023-02-01T08:26:10;4.55;;;3.45;;
48040;SDS011;33815;48.386;11.738;2023-02-01T08:28:41;4.78;;;3.70;;
48040;SDS011;33815;48.386;11.738;2023-02-01T08:31:08;9.85;;;3.55;;
48040;SDS011;33815;48.386;11.738;2023-02-01T08:33:35;3.83;;;3.22;;
48040;SDS011;33815;48.386;11.738;2023-02-01T08:36:03;4.55;;;3.20;;
48040;SDS011;33815;48.386;11.738;2023-02-01T08:38:28;4.00;;;3.35;;
48040;SDS011;33815;48.386;11.738;2023-02-01T08:40:54;4.05;;;3.45;;
48040;SDS011;33815;48.386;11.738;2023-02-01T08:43:19;6.35;;;4.05;;
48040;SDS011;33815;48.386;11.738;2023-02-01T08:45:44;5.15;;;3.30;;
48040;SDS011;33815;48.386;11.738;2023-02-01T08:48:09;3.40;;;3.10;;
48040;SDS011;33815;48.386;11.738;2023-02-01T08:50:35;4.22;;;3.08;;
48040;SDS011;33815;48.386;11.738;2023-02-01T08:53:00;4.80;;;3.33;;
48040;SDS011;33815;48.386;11.738;2023-02-01T08:55:25;3.65;;;3.10;;
48040;SDS011;33815;48.386;11.738;2023-02-01T08:57:51;5.88;;;3.70;;
48040;SDS011;33815;48.386;11.738;2023-02-01T09:00:17;5.80;;;3.17;;
48040;SDS011;33815;48.386;11.738;2023-02-01T09:02:42;5.70;;;3.75;;
48040;SDS011;33815;48.386;11.738;2023-02-01T09:05:08;4.07;;;3.15;;
48040;SDS011;33815;48.386;11.738;2023-02-01T09:07:34;5.78;;;3.15;;
48040;SDS011;33815;48.386;11.738;2023-02-01T09:10:00;4.15;;;3.70;;
48040;SDS011;33815;48.386;11.738;2023-02-01T09:12:26;5.35;;;2.65;;
48040;SDS011;33815;48.386;11.738;2023-02-01T09:14:53;4.05;;;2.85;;
48040;SDS011;33815;48.386;11.738;2023-02-01T09:17:18;4.63;;;3.53;;
48040;SDS011;33815;48.386;11.738;2023-02-01T09:19:43;4.20;;;2.90;;
48040;SDS011;33815;48.386;11.738;2023-02-01T09:22:09;3.65;;;3.08;;
48040;SDS011;33815;48.386;11.738;2023-02-01T09:24:34;4.75;;;3.38;;
48040;SDS011;33815;48.386;11.738;2023-02-01T09:26:59;2.83;;;2.57;;
48040;SDS011;33815;48.386;11.738;2023-02-01T09:29:24;2.55;;;2.35;;
48040;SDS011;33815;48.386;11.738;2023-02-01T09:31:50;4.20;;;2.25;;
48040;SDS011;33815;48.386;11.738;2023-02-01T09:34:15;3.38;;;2.53;;
48040;SDS011;33815;48.386;11.738;2023-02-01T09:36:40;3.08;;;2.75;;
48040;SDS011;33815;48.386;11.738;2023-02-01T09:39:06;6.32;;;3.03;;
48040;SDS011;33815;48.386;11.738;2023-02-01T09:47:21;2.97;;;2.40;;
48040;SDS011;33815;48.386;11.738;2023-02-01T09:49:51;3.97;;;3.00;;
48040;SDS011;33815;48.386;11.738;2023-02-01T09:52:43;3.17;;;2.75;;
48040;SDS011;33815;48.386;11.738;2023-02-01T09:55:26;3.55;;;3.10;;
48040;SDS011;33815;48.386;11.738;2023-02-01T10:00:33;2.95;;;2.38;;
48040;SDS011;33815;48.386;11.738;2023-02-01T10:03:01;2.85;;;2.65;;
48040;SDS011;33815;48.386;11.738;2023-02-01T10:10:57;5.00;;;2.30;;
48040;SDS011;33815;48.386;11.738;2023-02-01T10:16:20;6.82;;;4.45;;
48040;SDS011;33815;48.386;11.738;2023-02-01T10:19:05;2.88;;;2.45;;
48040;SDS011;33815;48.386;11.738;2023-02-01T10:22:06;3.22;;;2.47;;
48040;SDS011;33815;48.386;11.738;2023-02-01T10:24:42;2.60;;;2.40;;
48040;SDS011;33815;48.386;11.738;2023-02-01T10:27:33;3.67;;;2.67;;
48040;SDS011;33815;48.386;11.738;2023-02-01T10:30:09;6.22;;;2.85;;
48040;SDS011;33815;48.386;11.738;2023-02-01T10:32:52;3.92;;;2.53;;
48040;SDS011;33815;48.386;11.738;2023-02-01T10:35:22;2.55;;;2.30;;
48040;SDS011;33815;48.386;11.738;2023-02-01T10:37:52;4.45;;;2.50;;
48040;SDS011;33815;48.386;11.738;2023-02-01T10:40:19;7.13;;;2.10;;
48040;SDS011;33815;48.386;11.738;2023-02-01T10:42:54;4.28;;;2.33;;
48040;SDS011;33815;48.386;11.738;2023-02-01T10:45:26;5.65;;;2.80;;
48040;SDS011;33815;48.386;11.738;2023-02-01T10:47:54;3.78;;;2.28;;
48040;SDS011;33815;48.386;11.738;2023-02-01T10:50:29;2.83;;;2.55;;
48040;SDS011;33815;48.386;11.738;2023-02-01T10:53:15;3.67;;;2.30;;
48040;SDS011;33815;48.386;11.738;2023-02-01T10:55:50;3.58;;;1.88;;
48040;SDS011;33815;48.386;11.738;2023-02-01T10:58:25;3.00;;;2.40;;
48040;SDS011;33815;48.386;11.738;2023-02-01T11:00:53;4.78;;;2.55;;
48040;SDS011;33815;48.386;11.738;2023-02-01T11:08:51;3.42;;;2.05;;
48040;SDS011;33815;48.386;11.738;2023-02-01T11:11:18;2.35;;;2.08;;
48040;SDS011;33815;48.386;11.738;2023-02-01T11:13:44;3.22;;;2.22;;
48040;SDS011;33815;48.386;11.738;2023-02-01T11:16:17;3.28;;;2.00;;
48040;SDS011;33815;48.386;11.738;2023-02-01T11:18:43;3.53;;;2.45;;
48040;SDS011;33815;48.386;11.738;2023-02-01T11:21:09;6.88;;;2.65;;
48040;SDS011;33815;48.386;11.738;2023-02-01T11:23:40;4.60;;;2.72;;
48040;SDS011;33815;48.386;11.738;2023-02-01T11:26:10;6.22;;;2.80;;
48040;SDS011;33815;48.386;11.738;2023-02-01T11:28:39;2.97;;;2.20;;
48040;SDS011;33815;48.386;11.738;2023-02-01T11:31:10;3.65;;;2.47;;
48040;SDS011;33815;48.386;11.738;2023-02-01T11:33:39;4.07;;;2.28;;
48040;SDS011;33815;48.386;11.738;2023-02-01T11:36:17;4.82;;;2.20;;
48040;SDS011;33815;48.386;11.738;2023-02-01T11:41:54;2.10;;;1.90;;
48040;SDS011;33815;48.386;11.738;2023-02-01T11:44:26;4.45;;;2.53;;
48040;SDS011;33815;48.386;11.738;2023-02-01T11:46:59;5.28;;;2.25;;
48040;SDS011;33815;48.386;11.738;2023-02-01T11:49:48;2.70;;;2.40;;
48040;SDS011;33815;48.386;11.738;2023-02-01T11:58:02;3.33;;;1.90;;
48040;SDS011;33815;48.386;11.738;2023-02-01T12:11:30;3.42;;;2.35;;
48040;SDS011;33815;48.386;11.738;2023-02-01T12:14:08;2.70;;;2.50;;
48040;SDS011;33815;48.386;11.738;2023-02-01T12:25:57;3.30;;;2.65;;
48040;SDS011;33815;48.386;11.738;2023-02-01T12:28:34;3.80;;;2.70;;
48040;SDS011;33815;48.386;11.738;2023-02-01T12:34:32;4.53;;;3.33;;
48040;SDS011;33815;48.386;11.738;2023-02-01T12:43:01;3.97;;;2.40;;
48040;SDS011;33815;48.386;11.738;2023-02-01T12:45:31;3.35;;;2.35;;
48040;SDS011;33815;48.386;11.738;2023-02-01T12:50:49;6.50;;;2.42;;
48040;SDS011;33815;48.386;11.738;2023-02-01T12:53:25;5.25;;;3.20;;
48040;SDS011;33815;48.386;11.738;2023-02-01T12:56:01;8.07;;;2.88;;
48040;SDS011;33815;48.386;11.738;2023-02-01T12:58:35;5.30;;;2.70;;
48040;SDS011;33815;48.386;11.738;2023-02-01T13:01:26;8.82;;;2.60;;
48040;SDS011;33815;48.386;11.738;2023-02-01T13:06:37;4.38;;;3.10;;
48040;SDS011;33815;48.386;11.738;2023-02-01T13:11:34;4.83;;;2.73;;
48040;SDS011;33815;48.386;11.738;2023-02-01T13:14:11;10.10;;;3.53;;
48040;SDS011;33815;48.386;11.738;2023-02-01T13:16:43;7.93;;;3.05;;
48040;SDS011;33815;48.386;11.738;2023-02-01T13:22:31;4.85;;;2.67;;
48040;SDS011;33815;48.386;11.738;2023-02-01T13:27:42;8.00;;;3.28;;
48040;SDS011;33815;48.386;11.738;2023-02-01T13:36:34;4.43;;;2.35;;
48040;SDS011;33815;48.386;11.738;2023-02-01T13:39:28;8.85;;;2.88;;
48040;SDS011;33815;48.386;11.738;2023-02-01T13:41:54;3.80;;;2.60;;
48040;SDS011;33815;48.386;11.738;2023-02-01T13:44:28;8.05;;;2.58;;
48040;SDS011;33815;48.386;11.738;2023-02-01T13:46:59;4.65;;;2.22;;
48040;SDS011;33815;48.386;11.738;2023-02-01T13:49:28;6.57;;;2.42;;
48040;SDS011;33815;48.386;11.738;2023-02-01T13:51:58;5.95;;;2.58;;
48040;SDS011;33815;48.386;11.738;2023-02-01T13:54:25;5.07;;;2.88;;
48040;SDS011;33815;48.386;11.738;2023-02-01T13:56:53;9.93;;;3.53;;
48040;SDS011;33815;48.386;11.738;2023-02-01T14:05:08;10.45;;;2.72;;
48040;SDS011;33815;48.386;11.738;2023-02-01T14:07:34;3.25;;;1.95;;
48040;SDS011;33815;48.386;11.738;2023-02-01T14:10:45;4.10;;;3.30;;
48040;SDS011;33815;48.386;11.738;2023-02-01T14:13:04;7.05;;;2.70;;
48040;SDS011;33815;48.386;11.738;2023-02-01T14:15:37;9.18;;;2.97;;
48040;SDS011;33815;48.386;11.738;2023-02-01T14:18:02;5.63;;;2.30;;
48040;SDS011;33815;48.386;11.738;2023-02-01T14:23:40;3.78;;;2.10;;
48040;SDS011;33815;48.386;11.738;2023-02-01T14:26:10;5.97;;;2.40;;
48040;SDS011;33815;48.386;11.738;2023-02-01T14:28:45;4.50;;;2.47;;
48040;SDS011;33815;48.386;11.738;2023-02-01T14:31:15;3.60;;;2.15;;
48040;SDS011;33815;48.386;11.738;2023-02-01T14:33:49;6.35;;;2.20;;
48040;SDS011;33815;48.386;11.738;2023-02-01T14:36:14;4.97;;;2.42;;
48040;SDS011;33815;48.386;11.738;2023-02-01T14:38:40;4.80;;;2.38;;
48040;SDS011;33815;48.386;11.738;2023-02-01T14:41:30;4.53;;;2.38;;
48040;SDS011;33815;48.386;11.738;2023-02-01T14:50:11;2.22;;;2.03;;
48040;SDS011;33815;48.386;11.738;2023-02-01T14:52:39;7.13;;;2.30;;
48040;SDS011;33815;48.386;11.738;2023-02-01T14:55:11;6.95;;;2.83;;
48040;SDS011;33815;48.386;11.738;2023-02-01T14:57:39;3.90;;;2.72;;
48040;SDS011;33815;48.386;11.738;2023-02-01T15:00:19;2.40;;;2.05;;
48040;SDS011;33815;48.386;11.738;2023-02-01T15:02:54;2.92;;;2.15;;
48040;SDS011;33815;48.386;11.738;2023-02-01T15:07:51;3.65;;;2.28;;
48040;SDS011;33815;48.386;11.738;2023-02-01T15:10:17;4.65;;;2.53;;
48040;SDS011;33815;48.386;11.738;2023-02-01T15:12:45;8.63;;;2.55;;
48040;SDS011;33815;48.386;11.738;2023-02-01T15:15:17;4.88;;;2.67;;
48040;SDS011;33815;48.386;11.738;2023-02-01T15:17:58;3.60;;;1.67;;
48040;SDS011;33815;48.386;11.738;2023-02-01T15:20:28;3.63;;;3.30;;
48040;SDS011;33815;48.386;11.738;2023-02-01T15:23:02;3.25;;;2.30;;
48040;SDS011;33815;48.386;11.738;2023-02-01T15:25:33;4.32;;;2.08;;
48040;SDS011;33815;48.386;11.738;2023-02-01T15:28:03;4.47;;;3.55;;
48040;SDS011;33815;48.386;11.738;2023-02-01T15:30:31;3.33;;;2.17;;
48040;SDS011;33815;48.386;11.738;2023-02-01T15:33:05;3.95;;;2.30;;
48040;SDS011;33815;48.386;11.738;2023-02-01T15:41:01;14.02;;;4.22;;
48040;SDS011;33815;48.386;11.738;2023-02-01T15:43:37;3.08;;;2.17;;
48040;SDS011;33815;48.386;11.738;2023-02-01T15:46:10;18.20;;;6.30;;
48040;SDS011;33815;48.386;11.738;2023-02-01T15:48:39;15.30;;;3.95;;
48040;SDS011;33815;48.386;11.738;2023-02-01T15:51:13;6.03;;;1.77;;
48040;SDS011;33815;48.386;11.738;2023-02-01T15:53:46;3.22;;;1.83;;
48040;SDS011;33815;48.386;11.738;2023-02-01T15:56:22;4.82;;;1.88;;
48040;SDS011;33815;48.386;11.738;2023-02-01T15:58:51;5.10;;;1.70;;
48040;SDS011;33815;48.386;11.738;2023-02-01T16:01:18;5.57;;;1.67;;
48040;SDS011;33815;48.386;11.738;2023-02-01T16:03:44;2.78;;;1.88;;
48040;SDS011;33815;48.386;11.738;2023-02-01T16:09:21;3.95;;;2.30;;
48040;SDS011;33815;48.386;11.738;2023-02-01T16:11:40;7.05;;;3.03;;
48040;SDS011;33815;48.386;11.738;2023-02-01T16:14:12;6.22;;;1.95;;
48040;SDS011;33815;48.386;11.738;2023-02-01T16:16:37;3.67;;;1.73;;
48040;SDS011;33815;48.386;11.738;2023-02-01T16:19:02;16.33;;;6.72;;
48040;SDS011;33815;48.386;11.738;2023-02-01T16:21:28;9.13;;;5.38;;
48040;SDS011;33815;48.386;11.738;2023-02-01T16:23:53;10.07;;;4.78;;
48040;SDS011;33815;48.386;11.738;2023-02-01T16:26:18;16.42;;;8.38;;
48040;SDS011;33815;48.386;11.738;2023-02-01T16:28:44;29.55;;;12.73;;
48040;SDS011;33815;48.386;11.738;2023-02-01T16:31:11;20.30;;;8.32;;
48040;SDS011;33815;48.386;11.738;2023-02-01T16:33:44;14.38;;;4.57;;
48040;SDS011;33815;48.386;11.738;2023-02-01T16:36:10;27.30;;;12.25;;
48040;SDS011;33815;48.386;11.738;2023-02-01T16:38:36;20.17;;;9.23;;
48040;SDS011;33815;48.386;11.738;2023-02-01T16:41:01;44.55;;;17.95;;
48040;SDS011;33815;48.386;11.738;2023-02-01T16:43:27;26.88;;;10.15;;
48040;SDS011;33815;48.386;11.738;2023-02-01T16:45:53;7.18;;;2.85;;
48040;SDS011;33815;48.386;11.738;2023-02-01T16:48:21;9.63;;;4.18;;
48040;SDS011;33815;48.386;11.738;2023-02-01T16:50:55;10.63;;;3.25;;
48040;SDS011;33815;48.386;11.738;2023-02-01T16:53:23;4.60;;;2.30;;